首页
METAR-TAF:

METAR-TAF

机场 :

格洛斯特, 英格兰

纬度: 51-54N, 经度: 002-10W, 海拔: 29米

当前天气观测

该预报发布于17分钟前的17:50 UTC
风速4节,风向
温度 30°C
湿度 38%
气压 1012 hPa
能见度10公里或以上
少量云层高于6000英尺, 积雨云.
附近有阵雨

METAR: EGBJ 231750Z 17004KT 9999 VCSH FEW060CB 30/14 Q1012

时间: 19:07 (18:07 UTC)

预报

该预报发布于4小时和2分钟前的14:05 UTC
预报有效从23日的 15点(UTC)到 23日的 19点(UTC)
风速8节,风向南转南东
能见度10公里或以上
少量云层高于4500英尺
几率 30% :
短暂存在
从 23日的 15点(UTC)到 23日的 19点(UTC)
能見度: 6000
阵雨, 雷暴, 雨

TAF: EGBJ 231405Z 2315/2319 15008KT 9999 FEW045 PROB30 TEMPO 2315/2319 6000 SHRA TSRA

超过4000个机场的气象观测和天气预报(METAR&TAF报告)。

可查询的气象台以黄色和红色小点在地图上表示。

将鼠标移到小点上方,可查看气象台名称。

然后点击查看天气观测和预报。

如需切换地图:点击带黑十字的绿色按钮放大地图;点击带横线的绿色按钮缩小地图;或者点击绿色箭头查看邻近地区的地图。


METAR-TAF: